^^
Saratoga-Weather Station Historical Data
Daily Summary for August 09, 2022 Units:  Metric    English   Both
Daily Weekly Monthly Yearly Custom
  High: Low: Average:
Temperature: 32.3 °C 17.9 °C 24.8 °C
Dew Point: 13 °C 9.4 °C 11.2 °C
Humidity: 64% 26% 45%
Wind Speed: 14.5km/h 0km/h 3.3km/h
Wind Gust: 20.9km/h - -
Wind- - South
Pressure: 1022.7 hPa 1020.0 hPa -
Precipitation: 0.0 mm    
Historical Graphs
 
 
Tabular Data for August 09, 2022
Time Temperature Dew Point Pressure Wind Wind Speed Wind Gust Humidity Rainfall Rate (Hourly) solar
00:02 21.8 °C 10.9 °C 1021.7 hPa WNW 3.2 km/h 12.9 km/h 50% 0.0 mm 0 W/m2
00:07 21.7 °C 11.1 °C 1021.7 hPa NW 4.7 km/h 9.7 km/h 51% 0.0 mm 0 W/m2
00:12 21.6 °C 11 °C 1021.7 hPa WNW 4.7 km/h 8 km/h 51% 0.0 mm 0 W/m2
00:17 21.5 °C 11.2 °C 1021.7 hPa West 1.4 km/h 6.4 km/h 52% 0.0 mm 0 W/m2
00:22 21.4 °C 11.1 °C 1021.7 hPa NW 3.2 km/h 9.7 km/h 52% 0.0 mm 0 W/m2
00:27 21.4 °C 11.4 °C 1021.7 hPa WSW 1.4 km/h 4.8 km/h 53% 0.0 mm 0 W/m2
00:32 21.3 °C 11.3 °C 1022.0 hPa NW 4.7 km/h 9.7 km/h 53% 0.0 mm 0 W/m2
00:37 21.3 °C 11.3 °C 1021.7 hPa West 3.2 km/h 12.9 km/h 53% 0.0 mm 0 W/m2
00:42 21.2 °C 11.2 °C 1021.7 hPa WNW 4.7 km/h 8 km/h 53% 0.0 mm 0 W/m2
00:47 21.1 °C 11.4 °C 1021.7 hPa North 4.7 km/h 12.9 km/h 54% 0.0 mm 0 W/m2
00:52 21.1 °C 11.4 °C 1021.7 hPa WNW 1.4 km/h 8 km/h 54% 0.0 mm 0 W/m2
00:57 20.9 °C 11.5 °C 1021.7 hPa ESE 1.4 km/h 4.8 km/h 55% 0.0 mm 0 W/m2
01:02 20.9 °C 11.5 °C 1021.7 hPa WSW 4.7 km/h 11.3 km/h 55% 0.0 mm 0 W/m2
01:07 20.8 °C 11.4 °C 1021.7 hPa West 4.7 km/h 4.8 km/h 55% 0.0 mm 0 W/m2
01:12 20.8 °C 11.4 °C 1021.7 hPa WSW 4.7 km/h 9.7 km/h 55% 0.0 mm 0 W/m2
01:17 20.8 °C 11.4 °C 1021.7 hPa West 3.2 km/h 6.4 km/h 55% 0.0 mm 0 W/m2
01:22 20.7 °C 11.3 °C 1022.0 hPa WNW 1.4 km/h 12.9 km/h 55% 0.0 mm 0 W/m2
01:27 20.7 °C 11.6 °C 1022.0 hPa WNW 3.2 km/h 6.4 km/h 56% 0.0 mm 0 W/m2
01:32 20.6 °C 11.5 °C 1022.0 hPa WNW 4.7 km/h 12.9 km/h 56% 0.0 mm 0 W/m2
01:37 20.6 °C 11.5 °C 1022.0 hPa Calm   3.2 km/h 56% 0.0 mm 0 W/m2
01:42 20.4 °C 11.6 °C 1022.0 hPa SW 3.2 km/h 6.4 km/h 57% 0.0 mm 0 W/m2
01:47 20.3 °C 11.5 °C 1022.0 hPa Calm   6.4 km/h 57% 0.0 mm 0 W/m2
01:52 20.3 °C 11.5 °C 1022.0 hPa WNW 6.4 km/h 6.4 km/h 57% 0.0 mm 0 W/m2
01:57 20.2 °C 11.4 °C 1021.7 hPa North 3.2 km/h 4.8 km/h 57% 0.0 mm 0 W/m2
02:02 20.2 °C 11.4 °C 1021.7 hPa Calm   6.4 km/h 57% 0.0 mm 0 W/m2
02:07 20.3 °C 11.5 °C 1021.7 hPa WSW 3.2 km/h 4.8 km/h 57% 0.0 mm 0 W/m2
02:12 20.2 °C 11.4 °C 1021.7 hPa WNW 6.4 km/h 6.4 km/h 57% 0.0 mm 0 W/m2
02:17 20.2 °C 11.4 °C 1021.7 hPa NW 1.4 km/h 3.2 km/h 57% 0.0 mm 0 W/m2
02:22 20.2 °C 11.4 °C 1021.7 hPa WNW 3.2 km/h 9.7 km/h 57% 0.0 mm 0 W/m2
02:27 20.2 °C 11.4 °C 1021.7 hPa NW 3.2 km/h 9.7 km/h 57% 0.0 mm 0 W/m2
02:32 20.1 °C 11.6 °C 1021.7 hPa North 7.9 km/h 8 km/h 58% 0.0 mm 0 W/m2
02:37 20 °C 11.5 °C 1021.7 hPa West 3.2 km/h 6.4 km/h 58% 0.0 mm 0 W/m2
02:42 19.9 °C 11.4 °C 1021.7 hPa West 3.2 km/h 6.4 km/h 58% 0.0 mm 0 W/m2
02:47 19.9 °C 11.4 °C 1021.7 hPa WNW 14.5 km/h 14.5 km/h 58% 0.0 mm 0 W/m2
02:52 19.9 °C 11.4 °C 1021.7 hPa West 4.7 km/h 11.3 km/h 58% 0.0 mm 0 W/m2
02:57 19.9 °C 11.4 °C 1021.7 hPa WNW 14.5 km/h 14.5 km/h 58% 0.0 mm 0 W/m2
03:02 19.8 °C 11.3 °C 1021.7 hPa WSW 3.2 km/h 6.4 km/h 58% 0.0 mm 0 W/m2
03:07 19.8 °C 11.6 °C 1021.7 hPa NW 3.2 km/h 12.9 km/h 59% 0.0 mm 0 W/m2
03:12 19.8 °C 11.6 °C 1021.7 hPa NW 3.2 km/h 6.4 km/h 59% 0.0 mm 0 W/m2
03:17 19.7 °C 11.5 °C 1021.7 hPa WNW 6.4 km/h 11.3 km/h 59% 0.0 mm 0 W/m2
03:22 19.7 °C 11.5 °C 1021.7 hPa West 3.2 km/h 9.7 km/h 59% 0.0 mm 0 W/m2
03:27 19.7 °C 11.5 °C 1021.7 hPa NW 1.4 km/h 11.3 km/h 59% 0.0 mm 0 W/m2
03:32 19.6 °C 11.4 °C 1021.7 hPa WNW 1.4 km/h 6.4 km/h 59% 0.0 mm 0 W/m2
03:37 19.5 °C 11.3 °C 1021.3 hPa West 1.4 km/h 4.8 km/h 59% 0.0 mm 0 W/m2
03:42 19.4 °C 11.4 °C 1021.3 hPa West 1.4 km/h 4.8 km/h 60% 0.0 mm 0 W/m2
03:47 19.3 °C 11.3 °C 1021.3 hPa WNW 3.2 km/h 4.8 km/h 60% 0.0 mm 0 W/m2
03:52 19.3 °C 11.3 °C 1021.7 hPa WSW 4.7 km/h 6.4 km/h 60% 0.0 mm 0 W/m2
03:57 19.3 °C 11.3 °C 1021.7 hPa West 3.2 km/h 3.2 km/h 60% 0.0 mm 0 W/m2
04:02 19.2 °C 11.2 °C 1021.7 hPa West 9.7 km/h 9.7 km/h 60% 0.0 mm 0 W/m2
04:07 19.1 °C 11.2 °C 1021.7 hPa West 4.7 km/h 4.8 km/h 60% 0.0 mm 0 W/m2
04:12 19.1 °C 11.2 °C 1021.7 hPa West 3.2 km/h 3.2 km/h 60% 0.0 mm 0 W/m2
04:17 19.2 °C 11.2 °C 1021.7 hPa NW 4.7 km/h 9.7 km/h 60% 0.0 mm 0 W/m2
04:22 19.2 °C 11.2 °C 1021.3 hPa West 1.4 km/h 3.2 km/h 60% 0.0 mm 0 W/m2
04:27 19.1 °C 11.2 °C 1021.7 hPa WSW 1.4 km/h 6.4 km/h 60% 0.0 mm 0 W/m2
04:32 18.9 °C 11.2 °C 1021.7 hPa Calm   4.8 km/h 61% 0.0 mm 0 W/m2
04:37 18.9 °C 11.2 °C 1021.7 hPa West 1.4 km/h 3.2 km/h 61% 0.0 mm 0 W/m2
04:42 18.8 °C 11.1 °C 1021.7 hPa NW 4.7 km/h 14.5 km/h 61% 0.0 mm 0 W/m2
04:47 18.9 °C 11.2 °C 1021.7 hPa WNW 1.4 km/h 4.8 km/h 61% 0.0 mm 0 W/m2
04:52 18.9 °C 11.2 °C 1021.7 hPa NW 4.7 km/h 8 km/h 61% 0.0 mm 0 W/m2
04:57 18.9 °C 11.2 °C 1021.7 hPa WSW 3.2 km/h 8 km/h 61% 0.0 mm 0 W/m2
05:02 18.9 °C 11.2 °C 1021.7 hPa Calm   4.8 km/h 61% 0.0 mm 0 W/m2
05:07 18.8 °C 11.1 °C 1021.7 hPa West 3.2 km/h 6.4 km/h 61% 0.0 mm 0 W/m2
05:12 18.7 °C 11 °C 1021.7 hPa WNW 1.4 km/h 1.6 km/h 61% 0.0 mm 0 W/m2
05:17 18.6 °C 11.2 °C 1021.7 hPa WNW 1.4 km/h 6.4 km/h 62% 0.0 mm 0 W/m2
05:22 18.6 °C 11.2 °C 1021.7 hPa NW 4.7 km/h 4.8 km/h 62% 0.0 mm 0 W/m2
05:27 18.6 °C 11.2 °C 1021.7 hPa North 3.2 km/h 4.8 km/h 62% 0.0 mm 0 W/m2
05:32 18.6 °C 11.2 °C 1021.7 hPa WNW 1.4 km/h 6.4 km/h 62% 0.0 mm 0 W/m2
05:37 18.6 °C 11.2 °C 1021.7 hPa WNW 1.4 km/h 4.8 km/h 62% 0.0 mm 0 W/m2
05:42 18.4 °C 11.2 °C 1021.7 hPa West 1.4 km/h 6.4 km/h 63% 0.0 mm 0 W/m2
05:47 18.3 °C 11.1 °C 1021.7 hPa Calm   3.2 km/h 63% 0.0 mm 0 W/m2
05:52 18.3 °C 11.1 °C 1021.7 hPa WSW 4.7 km/h 6.4 km/h 63% 0.0 mm 0 W/m2
05:57 18.3 °C 11.1 °C 1021.7 hPa WSW 1.4 km/h 4.8 km/h 63% 0.0 mm 0 W/m2
06:02 18.2 °C 11 °C 1021.7 hPa West 3.2 km/h 4.8 km/h 63% 0.0 mm 0 W/m2
06:07 18.3 °C 11.1 °C 1021.7 hPa West 4.7 km/h 4.8 km/h 63% 0.0 mm 0 W/m2
06:12 18.3 °C 11.1 °C 1021.7 hPa West 3.2 km/h 4.8 km/h 63% 0.0 mm 0 W/m2
06:17 18.3 °C 11.1 °C 1021.7 hPa West 3.2 km/h 3.2 km/h 63% 0.0 mm 0 W/m2
06:22 18.2 °C 11 °C 1021.7 hPa Calm     63% 0.0 mm 5 W/m2
06:27 18.2 °C 11 °C 1021.7 hPa Calm   1.6 km/h 63% 0.0 mm 7 W/m2
06:32 18 °C 11.1 °C 1021.7 hPa NW 3.2 km/h 3.2 km/h 64% 0.0 mm 9 W/m2
06:37 18 °C 11.1 °C 1022.0 hPa Calm   3.2 km/h 64% 0.0 mm 11 W/m2
06:42 17.9 °C 11 °C 1022.0 hPa WSW 1.4 km/h 4.8 km/h 64% 0.0 mm 12 W/m2
06:47 17.9 °C 11 °C 1022.0 hPa NW 3.2 km/h 4.8 km/h 64% 0.0 mm 14 W/m2
06:52 18 °C 11.1 °C 1022.0 hPa West 3.2 km/h 6.4 km/h 64% 0.0 mm 16 W/m2
06:57 18.1 °C 11.2 °C 1022.0 hPa WNW 1.4 km/h 4.8 km/h 64% 0.0 mm 18 W/m2
07:02 18 °C 11.1 °C 1022.0 hPa Calm   6.4 km/h 64% 0.0 mm 19 W/m2
07:07 18 °C 11.1 °C 1022.0 hPa WNW 1.4 km/h 4.8 km/h 64% 0.0 mm 21 W/m2
07:12 18 °C 11.1 °C 1022.0 hPa Calm   1.6 km/h 64% 0.0 mm 23 W/m2
07:17 18 °C 11.1 °C 1022.0 hPa WNW 3.2 km/h 3.2 km/h 64% 0.0 mm 23 W/m2
07:22 18 °C 11.1 °C 1022.0 hPa Calm   3.2 km/h 64% 0.0 mm 25 W/m2
07:27 18.1 °C 11.2 °C 1022.0 hPa Calm   1.6 km/h 64% 0.0 mm 26 W/m2
07:32 18.2 °C 11.3 °C 1022.4 hPa SSW 3.2 km/h 9.7 km/h 64% 0.0 mm 83 W/m2
07:37 18.4 °C 11.2 °C 1022.0 hPa Calm   3.2 km/h 63% 0.0 mm 97 W/m2
07:42 18.6 °C 11.4 °C 1022.4 hPa West 4.7 km/h 6.4 km/h 63% 0.0 mm 109 W/m2
07:47 18.7 °C 11.3 °C 1022.4 hPa North 3.2 km/h 4.8 km/h 62% 0.0 mm 127 W/m2
07:52 18.9 °C 11.5 °C 1022.4 hPa NNW 1.4 km/h 6.4 km/h 62% 0.0 mm 141 W/m2
07:57 19.1 °C 11.4 °C 1022.4 hPa WNW 1.4 km/h 4.8 km/h 61% 0.0 mm 155 W/m2
08:02 19.2 °C 11.5 °C 1022.4 hPa NW 3.2 km/h 3.2 km/h 61% 0.0 mm 172 W/m2
08:07 19.4 °C 11.7 °C 1022.4 hPa East 1.4 km/h 6.4 km/h 61% 0.0 mm 186 W/m2
08:12 19.7 °C 11.7 °C 1022.4 hPa North 4.7 km/h 9.7 km/h 60% 0.0 mm 197 W/m2
08:17 19.8 °C 11.6 °C 1022.4 hPa WNW 1.4 km/h 6.4 km/h 59% 0.0 mm 142 W/m2
08:22 19.9 °C 11.6 °C 1022.4 hPa Calm   4.8 km/h 59% 0.0 mm 65 W/m2
08:27 20.1 °C 11.8 °C 1022.4 hPa NW 3.2 km/h 6.4 km/h 59% 0.0 mm 42 W/m2
08:32 20.1 °C 11.8 °C 1022.7 hPa WSW 6.4 km/h 9.7 km/h 59% 0.0 mm 42 W/m2
08:37 20.1 °C 11.6 °C 1022.7 hPa East 4.7 km/h 8 km/h 58% 0.0 mm 42 W/m2
08:42 20.3 °C 11.8 °C 1022.7 hPa ENE 1.4 km/h 8 km/h 58% 0.0 mm 40 W/m2
08:47 20.3 °C 11.8 °C 1022.7 hPa West 3.2 km/h 6.4 km/h 58% 0.0 mm 40 W/m2
08:52 20.3 °C 11.8 °C 1022.7 hPa West 4.7 km/h 11.3 km/h 58% 0.0 mm 40 W/m2
08:57 20.4 °C 11.9 °C 1022.7 hPa WNW 6.4 km/h 9.7 km/h 58% 0.0 mm 40 W/m2
09:02 20.6 °C 12 °C 1022.7 hPa NW 3.2 km/h 3.2 km/h 58% 0.0 mm 42 W/m2
09:07 20.8 °C 11.7 °C 1022.7 hPa NNW 7.9 km/h 9.7 km/h 56% 0.0 mm 42 W/m2
09:12 20.9 °C 12.1 °C 1022.7 hPa West 9.7 km/h 9.7 km/h 57% 0.0 mm 40 W/m2
09:17 21 °C 11.9 °C 1022.7 hPa West 1.4 km/h 3.2 km/h 56% 0.0 mm 40 W/m2
09:22 21.2 °C 12.1 °C 1022.7 hPa NNW 4.7 km/h 9.7 km/h 56% 0.0 mm 40 W/m2
09:28 21.4 °C 12 °C 1022.7 hPa ESE 6.4 km/h 6.4 km/h 55% 0.0 mm 42 W/m2
09:33 21.6 °C 11.9 °C 1022.7 hPa NNW 1.4 km/h 8 km/h 54% 0.0 mm 42 W/m2
09:38 21.7 °C 12.3 °C 1022.7 hPa NNW 4.7 km/h 4.8 km/h 55% 0.0 mm 42 W/m2
09:43 21.8 °C 12.1 °C 1022.7 hPa WNW 4.7 km/h 6.4 km/h 54% 0.0 mm 44 W/m2
09:48 22.1 °C 12.1 °C 1022.7 hPa NNE 1.4 km/h 6.4 km/h 53% 0.0 mm 44 W/m2
09:53 22.3 °C 12 °C 1022.7 hPa NNW 4.7 km/h 8 km/h 52% 0.0 mm 44 W/m2
09:58 22.6 °C 12.2 °C 1022.7 hPa NE 3.2 km/h 4.8 km/h 52% 0.0 mm 47 W/m2
10:03 22.9 °C 12.2 °C 1022.7 hPa ESE 1.4 km/h 8 km/h 51% 0.0 mm 49 W/m2
10:08 23.2 °C 12.5 °C 1022.7 hPa NNE 6.4 km/h 6.4 km/h 51% 0.0 mm 51 W/m2
10:13 23.5 °C 12.5 °C 1022.7 hPa North 3.2 km/h 4.8 km/h 50% 0.0 mm 367 W/m2
10:18 23.7 °C 12.4 °C 1022.7 hPa SE 6.4 km/h 9.7 km/h 49% 0.0 mm 534 W/m2
10:23 23.8 °C 12.4 °C 1022.7 hPa ESE 1.4 km/h 12.9 km/h 49% 0.0 mm 547 W/m2
10:28 23.9 °C 12.2 °C 1022.7 hPa ENE 4.7 km/h 9.7 km/h 48% 0.0 mm 561 W/m2
10:33 24.2 °C 12.2 °C 1022.7 hPa East 6.4 km/h 12.9 km/h 47% 0.0 mm 571 W/m2
10:38 24.4 °C 12 °C 1022.7 hPa SE 6.4 km/h 6.4 km/h 46% 0.0 mm 584 W/m2
10:43 24.6 °C 12.2 °C 1022.7 hPa ENE 3.2 km/h 11.3 km/h 46% 0.0 mm 598 W/m2
10:48 24.7 °C 12 °C 1022.7 hPa ESE 6.4 km/h 11.3 km/h 45% 0.0 mm 608 W/m2
10:53 24.8 °C 12.1 °C 1022.7 hPa ENE 4.7 km/h 6.4 km/h 45% 0.0 mm 619 W/m2
10:58 25.1 °C 12.3 °C 1022.7 hPa NNE 3.2 km/h 8 km/h 45% 0.0 mm 629 W/m2
11:03 25.2 °C 12.1 °C 1022.7 hPa ENE 4.7 km/h 11.3 km/h 44% 0.0 mm 645 W/m2
11:08 25.4 °C 12.3 °C 1022.7 hPa NE 4.7 km/h 11.3 km/h 44% 0.0 mm 654 W/m2
11:13 25.7 °C 12.5 °C 1022.7 hPa SE 4.7 km/h 8 km/h 44% 0.0 mm 661 W/m2
11:18 25.8 °C 12.3 °C 1022.7 hPa ENE 7.9 km/h 8 km/h 43% 0.0 mm 671 W/m2
11:23 25.8 °C 12.3 °C 1022.7 hPa NNE 1.4 km/h 9.7 km/h 43% 0.0 mm 680 W/m2
11:28 26.1 °C 12.2 °C 1022.7 hPa NE 1.4 km/h 4.8 km/h 42% 0.0 mm 687 W/m2
11:33 26.4 °C 12.1 °C 1022.7 hPa East 3.2 km/h 12.9 km/h 41% 0.0 mm 700 W/m2
11:38 26.6 °C 12.6 °C 1022.7 hPa ESE 6.4 km/h 6.4 km/h 42% 0.0 mm 707 W/m2
11:43 26.8 °C 12.1 °C 1022.7 hPa SSE 3.2 km/h 12.9 km/h 40% 0.0 mm 721 W/m2
11:48 26.9 °C 12.5 °C 1022.7 hPa East 6.4 km/h 8 km/h 41% 0.0 mm 729 W/m2
11:53 26.9 °C 12.2 °C 1022.4 hPa ESE 6.4 km/h 12.9 km/h 40% 0.0 mm 738 W/m2
11:58 27.1 °C 12.3 °C 1022.7 hPa NNE 4.7 km/h 11.3 km/h 40% 0.0 mm 745 W/m2
12:03 27.3 °C 12.9 °C 1022.4 hPa NE 4.7 km/h 12.9 km/h 41% 0.0 mm 749 W/m2
12:08 27.6 °C 12.4 °C 1022.4 hPa South 3.2 km/h 6.4 km/h 39% 0.0 mm 754 W/m2
12:13 27.7 °C 12.5 °C 1022.4 hPa NE 4.7 km/h 12.9 km/h 39% 0.0 mm 761 W/m2
12:18 27.8 °C 12.6 °C 1022.4 hPa NNE 6.4 km/h 16.1 km/h 39% 0.0 mm 766 W/m2
12:23 27.7 °C 12.1 °C 1022.4 hPa NNE 3.2 km/h 6.4 km/h 38% 0.0 mm 777 W/m2
12:28 27.6 °C 12 °C 1022.4 hPa NE 1.4 km/h 16.1 km/h 38% 0.0 mm 784 W/m2
12:33 27.8 °C 12.6 °C 1022.4 hPa West 6.4 km/h 9.7 km/h 39% 0.0 mm 793 W/m2
12:38 28.2 °C 12.5 °C 1022.4 hPa NE 14.5 km/h 14.5 km/h 38% 0.0 mm 798 W/m2
12:43 28.3 °C 12.6 °C 1022.0 hPa Calm   3.2 km/h 38% 0.0 mm 802 W/m2
12:48 28.5 °C 12.8 °C 1022.0 hPa ESE 14.5 km/h 14.5 km/h 38% 0.0 mm 803 W/m2
12:53 28.6 °C 12.5 °C 1022.0 hPa ENE 6.4 km/h 11.3 km/h 37% 0.0 mm 805 W/m2
12:58 28.7 °C 13 °C 1022.0 hPa ESE 3.2 km/h 4.8 km/h 38% 0.0 mm 812 W/m2
13:03 28.8 °C 12.7 °C 1022.0 hPa ENE 6.4 km/h 12.9 km/h 37% 0.0 mm 814 W/m2
13:08 28.9 °C 12.3 °C 1022.0 hPa South 1.4 km/h 3.2 km/h 36% 0.0 mm 817 W/m2
13:13 29.1 °C 12.5 °C 1022.0 hPa North 1.4 km/h 9.7 km/h 36% 0.0 mm 819 W/m2
13:18 29.2 °C 12.2 °C 1022.0 hPa West 1.4 km/h 4.8 km/h 35% 0.0 mm 821 W/m2
13:23 29.3 °C 12.3 °C 1021.7 hPa North 4.7 km/h 4.8 km/h 35% 0.0 mm 821 W/m2
13:28 29.4 °C 11.9 °C 1021.7 hPa NW 6.4 km/h 11.3 km/h 34% 0.0 mm 824 W/m2
13:33 29.4 °C 11.9 °C 1021.7 hPa NW 3.2 km/h 6.4 km/h 34% 0.0 mm 821 W/m2
13:38 29.4 °C 11.9 °C 1021.7 hPa ENE 3.2 km/h 6.4 km/h 34% 0.0 mm 824 W/m2
13:43 29.7 °C 12.6 °C 1021.7 hPa SE 7.9 km/h 9.7 km/h 35% 0.0 mm 828 W/m2
13:48 30.1 °C 12.5 °C 1021.7 hPa North 1.4 km/h 8 km/h 34% 0.0 mm 826 W/m2
13:53 30.3 °C 11.8 °C 1021.7 hPa East 1.4 km/h 14.5 km/h 32% 0.0 mm 826 W/m2
13:58 30.2 °C 11.7 °C 1021.7 hPa South 1.4 km/h 11.3 km/h 32% 0.0 mm 819 W/m2
14:03 30.3 °C 11.8 °C 1021.3 hPa South 1.4 km/h 14.5 km/h 32% 0.0 mm 826 W/m2
14:08 30.6 °C 12 °C 1021.3 hPa East 3.2 km/h 8 km/h 32% 0.0 mm 814 W/m2
14:13 30.6 °C 11.5 °C 1021.7 hPa ENE 6.4 km/h 9.7 km/h 31% 0.0 mm 830 W/m2
14:18 30.6 °C 11 °C 1021.3 hPa ENE 1.4 km/h 11.3 km/h 30% 0.0 mm 830 W/m2
14:23 30.7 °C 11.1 °C 1021.3 hPa NNW 4.7 km/h 6.4 km/h 30% 0.0 mm 833 W/m2
14:28 31 °C 11.9 °C 1021.3 hPa ENE 4.7 km/h 6.4 km/h 31% 0.0 mm 835 W/m2
14:33 31.2 °C 11.1 °C 1021.3 hPa NNE 1.4 km/h 6.4 km/h 29% 0.0 mm 824 W/m2
14:38 31.3 °C 10.6 °C 1021.3 hPa West 6.4 km/h 6.4 km/h 28% 0.0 mm 823 W/m2
14:43 31.1 °C 11 °C 1021.3 hPa South 1.4 km/h 6.4 km/h 29% 0.0 mm 821 W/m2
14:48 31.3 °C 10.6 °C 1021.3 hPa ESE 3.2 km/h 8 km/h 28% 0.0 mm 812 W/m2
14:53 31.5 °C 10.8 °C 1021.3 hPa SE 4.7 km/h 6.4 km/h 28% 0.0 mm 819 W/m2
14:58 31.6 °C 10.9 °C 1021.3 hPa SSE 4.7 km/h 9.7 km/h 28% 0.0 mm 814 W/m2
15:03 31.6 °C 10.9 °C 1021.3 hPa NNW 3.2 km/h 6.4 km/h 28% 0.0 mm 812 W/m2
15:08 31.6 °C 10.9 °C 1021.3 hPa WSW 3.2 km/h 6.4 km/h 28% 0.0 mm 805 W/m2
15:13 31.7 °C 10.4 °C 1021.3 hPa NE 1.4 km/h 4.8 km/h 27% 0.0 mm 800 W/m2
15:18 31.8 °C 10.5 °C 1021.3 hPa East 3.2 km/h 14.5 km/h 27% 0.0 mm 788 W/m2
15:23 31.8 °C 10.5 °C 1021.3 hPa NNW 3.2 km/h 6.4 km/h 27% 0.0 mm 786 W/m2
15:28 31.5 °C 10.8 °C 1021.0 hPa NNW 9.7 km/h 9.7 km/h 28% 0.0 mm 789 W/m2
15:33 31.4 °C 10.7 °C 1021.0 hPa NNW 4.7 km/h 14.5 km/h 28% 0.0 mm 788 W/m2
15:38 31.3 °C 10.6 °C 1021.0 hPa NNE 4.7 km/h 14.5 km/h 28% 0.0 mm 795 W/m2
15:43 31.4 °C 11.2 °C 1021.0 hPa ESE 1.4 km/h 4.8 km/h 29% 0.0 mm 796 W/m2
15:48 31.5 °C 11.3 °C 1021.0 hPa ENE 6.4 km/h 9.7 km/h 29% 0.0 mm 800 W/m2
15:53 31.6 °C 10.3 °C 1021.0 hPa East 4.7 km/h 6.4 km/h 27% 0.0 mm 793 W/m2
15:58 31.8 °C 11 °C 1021.0 hPa ENE 14.5 km/h 14.5 km/h 28% 0.0 mm 793 W/m2
16:03 31.7 °C 11 °C 1021.0 hPa ENE 3.2 km/h 11.3 km/h 28% 0.0 mm 758 W/m2
16:08 31.7 °C 11 °C 1021.0 hPa ESE 6.4 km/h 9.7 km/h 28% 0.0 mm 645 W/m2
16:13 31.7 °C 11.5 °C 1020.7 hPa SSE 1.4 km/h 4.8 km/h 29% 0.0 mm 700 W/m2
16:18 31.8 °C 10.5 °C 1020.7 hPa North 4.7 km/h 8 km/h 27% 0.0 mm 694 W/m2
16:23 31.7 °C 10.4 °C 1020.7 hPa ESE 3.2 km/h 9.7 km/h 27% 0.0 mm 686 W/m2
16:28 31.7 °C 10.4 °C 1020.7 hPa WNW 1.4 km/h 6.4 km/h 27% 0.0 mm 670 W/m2
16:33 31.8 °C 10.5 °C 1020.7 hPa North 3.2 km/h 16.1 km/h 27% 0.0 mm 664 W/m2
16:38 31.7 °C 10.4 °C 1020.7 hPa Calm   8 km/h 27% 0.0 mm 656 W/m2
16:43 32 °C 10.7 °C 1020.7 hPa SSE 1.4 km/h 12.9 km/h 27% 0.0 mm 647 W/m2
16:48 32.2 °C 10.8 °C 1020.7 hPa ESE 4.7 km/h 17.7 km/h 27% 0.0 mm 633 W/m2
16:53 32.2 °C 10.8 °C 1020.7 hPa ENE 4.7 km/h 6.4 km/h 27% 0.0 mm 621 W/m2
16:58 32.2 °C 10.8 °C 1020.7 hPa Calm   17.7 km/h 27% 0.0 mm 617 W/m2
17:03 32.3 °C 10.3 °C 1020.7 hPa NNW 4.7 km/h 4.8 km/h 26% 0.0 mm 599 W/m2
17:08 32.2 °C 10.8 °C 1020.3 hPa NNW 9.7 km/h 16.1 km/h 27% 0.0 mm 584 W/m2
17:13 32.1 °C 10.7 °C 1020.7 hPa East 4.7 km/h 20.9 km/h 27% 0.0 mm 571 W/m2
17:18 32 °C 10.7 °C 1020.3 hPa SE 1.4 km/h 4.8 km/h 27% 0.0 mm 557 W/m2
17:23 32.1 °C 10.7 °C 1020.3 hPa East 6.4 km/h 16.1 km/h 27% 0.0 mm 543 W/m2
17:28 32.1 °C 10.7 °C 1020.7 hPa ENE 3.2 km/h 4.8 km/h 27% 0.0 mm 540 W/m2
17:33 32.2 °C 10.8 °C 1020.3 hPa SSE 1.4 km/h 4.8 km/h 27% 0.0 mm 517 W/m2
17:38 32.1 °C 10.7 °C 1020.3 hPa ENE 3.2 km/h 4.8 km/h 27% 0.0 mm 501 W/m2
17:43 32 °C 10.7 °C 1020.3 hPa East 3.2 km/h 6.4 km/h 27% 0.0 mm 490 W/m2
17:48 31.9 °C 11.1 °C 1020.3 hPa NE 9.7 km/h 9.7 km/h 28% 0.0 mm 482 W/m2
17:53 31.9 °C 11.1 °C 1020.3 hPa ENE 3.2 km/h 6.4 km/h 28% 0.0 mm 443 W/m2
17:58 31.9 °C 11.1 °C 1020.3 hPa East 1.4 km/h 4.8 km/h 28% 0.0 mm 439 W/m2
18:03 31.8 °C 11 °C 1020.0 hPa ESE 3.2 km/h 14.5 km/h 28% 0.0 mm 439 W/m2
18:08 31.8 °C 11 °C 1020.3 hPa ESE 3.2 km/h 12.9 km/h 28% 0.0 mm 418 W/m2
18:13 31.6 °C 10.9 °C 1020.0 hPa ENE 1.4 km/h 6.4 km/h 28% 0.0 mm 415 W/m2
18:18 31.6 °C 10.9 °C 1020.0 hPa ESE 3.2 km/h 14.5 km/h 28% 0.0 mm 424 W/m2
18:23 31.6 °C 10.9 °C 1020.0 hPa ENE 1.4 km/h 6.4 km/h 28% 0.0 mm 429 W/m2
18:28 31.7 °C 11 °C 1020.0 hPa ESE 3.2 km/h 6.4 km/h 28% 0.0 mm 415 W/m2
18:34 31.7 °C 11 °C 1020.3 hPa NW 3.2 km/h 14.5 km/h 28% 0.0 mm 285 W/m2
18:39 31.7 °C 11 °C 1020.0 hPa ENE 3.2 km/h 12.9 km/h 28% 0.0 mm 348 W/m2
18:44 31.5 °C 10.8 °C 1020.3 hPa ESE 3.2 km/h 8 km/h 28% 0.0 mm 299 W/m2
18:49 31.4 °C 11.2 °C 1020.3 hPa ESE 1.4 km/h 8 km/h 29% 0.0 mm 313 W/m2
18:54 31.2 °C 10.5 °C 1020.3 hPa East 6.4 km/h 11.3 km/h 28% 0.0 mm 302 W/m2
18:59 31.2 °C 10.5 °C 1020.0 hPa ENE 1.4 km/h 6.4 km/h 28% 0.0 mm 269 W/m2
19:04 31.3 °C 10.6 °C 1020.3 hPa ESE 1.4 km/h 4.8 km/h 28% 0.0 mm 244 W/m2
19:09 31.4 °C 10.2 °C 1020.3 hPa East 1.4 km/h 19.3 km/h 27% 0.0 mm 76 W/m2
19:14 31.3 °C 10.6 °C 1020.3 hPa ESE 3.2 km/h 9.7 km/h 28% 0.0 mm 62 W/m2
19:19 31.2 °C 10.5 °C 1020.3 hPa ESE 6.4 km/h 8 km/h 28% 0.0 mm 51 W/m2
19:24 31 °C 10.4 °C 1020.3 hPa SE 3.2 km/h 8 km/h 28% 0.0 mm 46 W/m2
19:29 30.9 °C 10.3 °C 1020.3 hPa East 1.4 km/h 6.4 km/h 28% 0.0 mm 42 W/m2
19:34 30.8 °C 10.2 °C 1020.3 hPa SE 3.2 km/h 9.7 km/h 28% 0.0 mm 40 W/m2
19:39 30.6 °C 10 °C 1020.3 hPa ENE 3.2 km/h 8 km/h 28% 0.0 mm 39 W/m2
19:44 30.5 °C 9.9 °C 1020.3 hPa NE 4.7 km/h 4.8 km/h 28% 0.0 mm 37 W/m2
19:49 30.4 °C 9.8 °C 1020.3 hPa East 9.7 km/h 9.7 km/h 28% 0.0 mm 35 W/m2
19:54 30.3 °C 9.8 °C 1020.3 hPa ENE 3.2 km/h 9.7 km/h 28% 0.0 mm 33 W/m2
19:59 30.2 °C 9.7 °C 1020.3 hPa East 3.2 km/h 8 km/h 28% 0.0 mm 32 W/m2
20:04 30.1 °C 9.6 °C 1020.3 hPa ESE 1.4 km/h 6.4 km/h 28% 0.0 mm 30 W/m2
20:09 29.9 °C 9.4 °C 1020.7 hPa ENE 4.7 km/h 11.3 km/h 28% 0.0 mm 30 W/m2
20:14 29.7 °C 9.8 °C 1020.7 hPa ENE 7.9 km/h 11.3 km/h 29% 0.0 mm 26 W/m2
20:19 29.5 °C 9.6 °C 1020.7 hPa SE 6.4 km/h 6.4 km/h 29% 0.0 mm 23 W/m2
20:24 29.3 °C 9.4 °C 1020.7 hPa East 4.7 km/h 8 km/h 29% 0.0 mm 21 W/m2
20:29 29.1 °C 9.8 °C 1020.7 hPa Calm   14.5 km/h 30% 0.0 mm 19 W/m2
20:34 28.9 °C 9.6 °C 1020.7 hPa ENE 1.4 km/h 6.4 km/h 30% 0.0 mm 18 W/m2
20:39 28.8 °C 10.5 °C 1020.7 hPa East 3.2 km/h 3.2 km/h 32% 0.0 mm 14 W/m2
20:44 28.5 °C 9.7 °C 1020.7 hPa NE 3.2 km/h 6.4 km/h 31% 0.0 mm 12 W/m2
20:49 28.3 °C 9.6 °C 1020.7 hPa ESE 3.2 km/h 4.8 km/h 31% 0.0 mm 11 W/m2
20:54 28.2 °C 9.9 °C 1020.7 hPa NE 3.2 km/h 3.2 km/h 32% 0.0 mm 7 W/m2
20:59 27.8 °C 10.1 °C 1021.0 hPa East 1.4 km/h 4.8 km/h 33% 0.0 mm 5 W/m2
21:04 27.6 °C 10.3 °C 1021.0 hPa East 1.4 km/h 1.6 km/h 34% 0.0 mm 0 W/m2
21:09 27.3 °C 10.5 °C 1021.0 hPa East 1.4 km/h 1.6 km/h 35% 0.0 mm 0 W/m2
21:14 26.9 °C 11 °C 1021.0 hPa Calm     37% 0.0 mm 0 W/m2
21:19 26.6 °C 10.3 °C 1021.0 hPa ESE 3.2 km/h 3.2 km/h 36% 0.0 mm 0 W/m2
21:24 26.3 °C 10.4 °C 1021.0 hPa East 1.4 km/h 3.2 km/h 37% 0.0 mm 0 W/m2
21:29 26.2 °C 10.8 °C 1021.0 hPa East 1.4 km/h 3.2 km/h 38% 0.0 mm 0 W/m2
21:34 26.1 °C 10.7 °C 1021.0 hPa ESE 1.4 km/h 3.2 km/h 38% 0.0 mm 0 W/m2
21:39 25.8 °C 10.4 °C 1021.3 hPa East 1.4 km/h 4.8 km/h 38% 0.0 mm 0 W/m2
21:44 25.8 °C 10.4 °C 1021.3 hPa ENE 4.7 km/h 6.4 km/h 38% 0.0 mm 0 W/m2
21:49 25.9 °C 10.5 °C 1021.3 hPa Calm   3.2 km/h 38% 0.0 mm 0 W/m2
21:54 25.9 °C 10.9 °C 1021.3 hPa Calm   1.6 km/h 39% 0.0 mm 0 W/m2
21:59 25.7 °C 11.1 °C 1021.3 hPa NE 1.4 km/h 3.2 km/h 40% 0.0 mm 0 W/m2
22:04 25.4 °C 11.2 °C 1021.3 hPa Calm   1.6 km/h 41% 0.0 mm 0 W/m2
22:09 25.1 °C 10.6 °C 1021.3 hPa Calm   4.8 km/h 40% 0.0 mm 0 W/m2
22:14 24.8 °C 11 °C 1021.3 hPa Calm   1.6 km/h 42% 0.0 mm 0 W/m2
22:19 24.6 °C 10.8 °C 1021.3 hPa Calm   1.6 km/h 42% 0.0 mm 0 W/m2
22:24 24.4 °C 11 °C 1021.3 hPa Calm   1.6 km/h 43% 0.0 mm 0 W/m2
22:29 24.2 °C 10.5 °C 1021.3 hPa Calm   1.6 km/h 42% 0.0 mm 0 W/m2
22:34 24.2 °C 10.8 °C 1021.3 hPa WNW 3.2 km/h 3.2 km/h 43% 0.0 mm 0 W/m2
22:39 24.1 °C 10.7 °C 1021.3 hPa West 1.4 km/h 4.8 km/h 43% 0.0 mm 0 W/m2
22:44 24.1 °C 11.1 °C 1021.3 hPa West 1.4 km/h 1.6 km/h 44% 0.0 mm 0 W/m2
22:49 23.9 °C 11.2 °C 1021.7 hPa Calm   4.8 km/h 45% 0.0 mm 0 W/m2
22:54 23.7 °C 11.1 °C 1021.7 hPa WSW 1.4 km/h 4.8 km/h 45% 0.0 mm 0 W/m2
22:59 23.4 °C 11.1 °C 1021.3 hPa WSW 1.4 km/h 3.2 km/h 46% 0.0 mm 0 W/m2
23:04 23.2 °C 10.9 °C 1021.7 hPa Calm   4.8 km/h 46% 0.0 mm 0 W/m2
23:09 23 °C 11.1 °C 1021.7 hPa Calm   4.8 km/h 47% 0.0 mm 0 W/m2
23:14 22.8 °C 10.9 °C 1021.7 hPa Calm   3.2 km/h 47% 0.0 mm 0 W/m2
23:19 22.7 °C 11.1 °C 1021.7 hPa SW 3.2 km/h 6.4 km/h 48% 0.0 mm 0 W/m2
23:24 22.6 °C 11.3 °C 1021.7 hPa SW 1.4 km/h 3.2 km/h 49% 0.0 mm 0 W/m2
23:29 22.4 °C 10.8 °C 1021.7 hPa SSW 3.2 km/h 6.4 km/h 48% 0.0 mm 0 W/m2
23:34 22.4 °C 10.5 °C 1021.7 hPa Calm   9.7 km/h 47% 0.0 mm 0 W/m2
23:39 22.8 °C 10.9 °C 1021.7 hPa WNW 1.4 km/h 4.8 km/h 47% 0.0 mm 0 W/m2
23:44 22.9 °C 10.7 °C 1021.7 hPa SW 3.2 km/h 9.7 km/h 46% 0.0 mm 0 W/m2
23:49 23 °C 10.8 °C 1021.7 hPa WNW 1.4 km/h 4.8 km/h 46% 0.0 mm 0 W/m2
23:54 23 °C 10.8 °C 1021.7 hPa NNW 3.2 km/h 4.8 km/h 46% 0.0 mm 0 W/m2
23:59 22.9 °C 10.7 °C 1021.7 hPa WSW 3.2 km/h 4.8 km/h 46% 0.0 mm 0 W/m2
Juneau County Weather
Compliments of Weather Underground - 4 mb